createdAt,value
2022-08-17T00:00:34.570Z,16.90
2022-08-17T00:05:42.797Z,16.50
2022-08-17T00:10:47.661Z,16.30
2022-08-17T00:15:51.603Z,16.20
2022-08-17T00:20:57.902Z,16.10
2022-08-17T00:26:01.189Z,16.10
2022-08-17T00:31:04.709Z,16.00
2022-08-17T00:36:09.706Z,15.90
2022-08-17T00:41:15.683Z,15.80
2022-08-17T00:46:22.161Z,15.70
2022-08-17T00:51:33.212Z,15.80
2022-08-17T00:56:39.601Z,15.80
2022-08-17T01:01:43.714Z,15.80
2022-08-17T01:06:49.848Z,15.80
2022-08-17T01:11:53.345Z,15.80
2022-08-17T01:16:57.611Z,15.80
2022-08-17T01:22:07.798Z,15.80
2022-08-17T01:27:13.866Z,15.90
2022-08-17T01:32:18.061Z,15.80
2022-08-17T01:37:29.126Z,15.90
2022-08-17T01:42:38.796Z,15.90
2022-08-17T01:47:42.148Z,16.00
2022-08-17T01:52:46.830Z,16.00
2022-08-17T01:57:51.534Z,15.90
2022-08-17T02:02:54.794Z,15.90
2022-08-17T02:08:00.494Z,15.90
2022-08-17T02:13:06.000Z,15.80
2022-08-17T02:18:11.008Z,15.90
2022-08-17T02:23:14.661Z,16.00
2022-08-17T02:28:22.402Z,16.10
2022-08-17T02:33:41.680Z,16.00
2022-08-17T02:38:45.700Z,15.90
2022-08-17T02:43:50.381Z,15.90
2022-08-17T02:48:53.732Z,15.70
2022-08-17T02:54:03.895Z,15.60
2022-08-17T02:59:22.766Z,15.50
2022-08-17T03:04:26.021Z,15.40
2022-08-17T03:09:29.301Z,15.30
2022-08-17T03:14:37.003Z,15.20
2022-08-17T03:19:43.077Z,15.20
2022-08-17T03:24:46.644Z,15.20
2022-08-17T03:29:52.453Z,15.10
2022-08-17T03:34:59.712Z,15.00
2022-08-17T03:40:03.459Z,15.00
2022-08-17T03:45:15.577Z,14.80
2022-08-17T03:50:34.011Z,14.80
2022-08-17T03:55:55.320Z,14.90
2022-08-17T04:01:00.988Z,15.00
2022-08-17T04:06:04.918Z,15.20
2022-08-17T04:11:08.188Z,15.50
2022-08-17T04:16:13.264Z,15.80
2022-08-17T04:21:16.472Z,16.10
2022-08-17T04:26:53.024Z,16.40
2022-08-17T04:31:45.382Z,16.50
2022-08-17T04:36:50.452Z,16.60
2022-08-17T04:42:17.126Z,16.60
2022-08-17T04:47:21.797Z,16.60
2022-08-17T04:52:29.799Z,16.70
2022-08-17T04:57:48.388Z,16.90
2022-08-17T05:02:55.082Z,17.30
2022-08-17T05:08:01.159Z,17.60
2022-08-17T05:13:07.898Z,17.90
2022-08-17T05:18:18.006Z,18.20
2022-08-17T05:23:23.618Z,18.20
2022-08-17T05:28:28.491Z,18.20
2022-08-17T05:33:36.697Z,18.20
2022-08-17T05:38:39.960Z,18.40
2022-08-17T05:43:43.943Z,18.70
2022-08-17T05:49:15.111Z,19.40
2022-08-17T05:54:30.468Z,20.10
2022-08-17T05:59:43.641Z,20.90
2022-08-17T06:05:06.204Z,21.10
2022-08-17T06:10:15.893Z,21.30
2022-08-17T06:15:28.000Z,21.90
2022-08-17T06:20:43.963Z,22.30
2022-08-17T06:25:52.006Z,22.70
2022-08-17T06:31:00.560Z,23.20
2022-08-17T06:36:40.291Z,23.50
2022-08-17T06:41:52.164Z,23.60
2022-08-17T06:47:04.736Z,23.90
2022-08-17T06:57:51.389Z,28.90
2022-08-17T07:03:03.516Z,31.40
2022-08-17T07:08:20.255Z,31.40
2022-08-17T07:13:43.976Z,34.30
2022-08-17T07:18:56.918Z,33.40
2022-08-17T07:24:29.714Z,30.30
2022-08-17T07:29:39.177Z,29.20
2022-08-17T07:35:18.212Z,28.30
2022-08-17T07:40:30.229Z,27.40
2022-08-17T07:45:52.738Z,26.40
2022-08-17T07:50:57.428Z,25.80
2022-08-17T07:56:02.091Z,25.60
2022-08-17T08:01:09.636Z,26.40
2022-08-17T08:06:21.933Z,26.20
2022-08-17T08:11:34.240Z,26.00
2022-08-17T08:16:37.552Z,25.50
2022-08-17T08:21:47.608Z,25.10
2022-08-17T08:26:58.178Z,24.60
2022-08-17T08:32:08.824Z,24.00
2022-08-17T08:37:33.218Z,23.60
2022-08-17T08:42:53.945Z,23.40
2022-08-17T08:48:12.742Z,23.30
2022-08-17T08:53:35.114Z,23.40
2022-08-17T08:58:50.715Z,23.40
2022-08-17T09:04:25.701Z,23.90
2022-08-17T09:09:42.442Z,24.40
2022-08-17T09:14:55.806Z,24.70
2022-08-17T09:20:06.442Z,24.90
2022-08-17T09:25:14.874Z,24.70
2022-08-17T09:30:20.440Z,24.40
2022-08-17T09:35:37.211Z,24.60
2022-08-17T09:40:48.259Z,24.60
2022-08-17T09:45:57.377Z,24.60
2022-08-17T09:51:06.899Z,24.60
2022-08-17T09:56:29.833Z,24.70
2022-08-17T10:01:40.783Z,24.80
2022-08-17T10:06:53.438Z,25.10
2022-08-17T10:12:20.470Z,25.60
2022-08-17T10:17:32.596Z,26.20
2022-08-17T10:23:00.536Z,26.50
2022-08-17T10:28:15.741Z,26.50
2022-08-17T10:33:29.006Z,26.70
2022-08-17T10:38:46.247Z,26.80
2022-08-17T10:44:39.517Z,27.30
2022-08-17T10:49:32.741Z,27.80
2022-08-17T10:54:42.167Z,27.70
2022-08-17T10:59:55.866Z,27.20
2022-08-17T11:05:27.674Z,26.90
2022-08-17T11:10:52.215Z,26.40
2022-08-17T11:16:08.937Z,26.30
2022-08-17T11:21:39.354Z,26.50
2022-08-17T11:26:48.936Z,26.70
2022-08-17T11:32:06.369Z,26.10
2022-08-17T11:37:35.848Z,25.20
2022-08-17T11:43:00.989Z,24.30
2022-08-17T11:48:32.286Z,23.70
2022-08-17T11:54:31.572Z,24.20
2022-08-17T11:59:59.534Z,25.80
2022-08-17T12:05:13.974Z,27.00
2022-08-17T12:15:53.384Z,27.90
2022-08-17T12:21:20.694Z,28.70
2022-08-17T12:26:30.504Z,29.10
2022-08-17T12:31:37.252Z,29.10
2022-08-17T12:36:41.995Z,29.30
2022-08-17T12:41:50.274Z,29.30
2022-08-17T12:46:59.745Z,28.90
2022-08-17T12:52:24.713Z,28.90
2022-08-17T12:57:33.683Z,29.20
2022-08-17T13:02:44.051Z,29.30
2022-08-17T13:07:48.788Z,29.60
2022-08-17T13:12:54.439Z,29.70
2022-08-17T13:18:08.543Z,29.30
2022-08-17T13:23:21.012Z,29.70
2022-08-17T13:28:29.803Z,29.70
2022-08-17T13:33:44.553Z,29.30
2022-08-17T13:38:51.063Z,30.00
2022-08-17T13:43:55.678Z,29.50
2022-08-17T13:49:01.917Z,29.70
2022-08-17T13:54:20.379Z,29.90
2022-08-17T13:59:38.212Z,29.90
2022-08-17T14:04:57.626Z,30.00
2022-08-17T14:10:05.379Z,29.20
2022-08-17T14:15:12.129Z,29.30
2022-08-17T14:20:17.390Z,29.30
2022-08-17T14:25:23.202Z,29.40
2022-08-17T14:30:30.068Z,29.80
2022-08-17T14:35:33.723Z,29.80
2022-08-17T14:40:39.239Z,29.80
2022-08-17T14:45:44.113Z,29.70
2022-08-17T14:50:47.503Z,29.50
2022-08-17T14:55:51.569Z,29.50
2022-08-17T15:00:56.575Z,29.50
2022-08-17T15:05:59.920Z,29.30
2022-08-17T15:11:04.077Z,29.50
2022-08-17T15:16:09.965Z,29.30
2022-08-17T15:21:14.950Z,29.10
2022-08-17T15:26:26.012Z,29.00
2022-08-17T15:31:32.191Z,29.20
2022-08-17T15:36:35.977Z,29.40
2022-08-17T15:41:39.344Z,29.10
2022-08-17T15:46:43.963Z,28.70
2022-08-17T15:51:47.234Z,28.40
2022-08-17T15:56:50.608Z,28.20
2022-08-17T16:03:07.864Z,27.80
2022-08-17T16:07:21.875Z,27.60
2022-08-17T16:12:27.728Z,27.50
2022-08-17T16:17:39.669Z,27.50
2022-08-17T16:22:49.276Z,27.40
2022-08-17T16:27:53.641Z,27.40
2022-08-17T16:33:01.461Z,27.30
2022-08-17T16:38:04.945Z,27.30
2022-08-17T16:43:12.162Z,27.20
2022-08-17T16:48:17.137Z,27.00
2022-08-17T16:53:21.538Z,26.70
2022-08-17T16:58:24.948Z,26.60
2022-08-17T17:03:31.958Z,26.40
2022-08-17T17:08:42.213Z,26.30
2022-08-17T17:13:54.196Z,26.20
2022-08-17T17:19:09.900Z,26.00
2022-08-17T17:24:28.893Z,25.80
2022-08-17T17:29:48.458Z,25.60
2022-08-17T17:35:01.250Z,25.40
2022-08-17T17:40:10.727Z,25.40
2022-08-17T17:45:20.990Z,25.20
2022-08-17T17:50:34.230Z,25.20
2022-08-17T17:55:54.608Z,25.10
2022-08-17T18:01:13.161Z,25.00
2022-08-17T18:06:31.880Z,24.80
2022-08-17T18:11:58.975Z,24.70
2022-08-17T18:17:05.236Z,24.50
2022-08-17T18:22:14.386Z,24.30
2022-08-17T18:27:24.983Z,24.10
2022-08-17T18:32:41.497Z,23.90
2022-08-17T18:37:48.810Z,23.80
2022-08-17T18:43:12.350Z,23.70
2022-08-17T18:48:22.981Z,23.60
2022-08-17T18:53:39.825Z,23.60
2022-08-17T18:58:43.684Z,23.60
2022-08-17T19:03:47.756Z,23.40
2022-08-17T19:08:52.610Z,23.20
2022-08-17T19:14:01.032Z,23.00
2022-08-17T19:19:10.936Z,22.90
2022-08-17T19:24:19.763Z,22.80
2022-08-17T19:29:31.025Z,22.70
2022-08-17T19:34:36.850Z,22.60
2022-08-17T19:39:51.228Z,22.40
2022-08-17T19:45:03.083Z,22.30
2022-08-17T19:50:14.577Z,22.20
2022-08-17T19:55:32.077Z,22.00
2022-08-17T20:00:41.576Z,21.80
2022-08-17T20:06:11.478Z,21.60
2022-08-17T20:11:21.776Z,21.40
2022-08-17T20:16:25.394Z,21.10
2022-08-17T20:21:35.719Z,21.00
2022-08-17T20:26:58.746Z,20.90
2022-08-17T20:32:25.318Z,20.80
2022-08-17T20:37:33.089Z,20.90
2022-08-17T20:42:38.356Z,20.90
2022-08-17T20:48:07.276Z,20.80
2022-08-17T20:53:13.609Z,20.90
2022-08-17T20:58:47.406Z,20.90
2022-08-17T21:03:54.117Z,20.90
2022-08-17T21:09:19.304Z,21.10
2022-08-17T21:14:36.627Z,21.20
2022-08-17T21:20:10.430Z,21.20
2022-08-17T21:25:28.381Z,21.20
2022-08-17T21:30:56.006Z,21.10
2022-08-17T21:36:27.764Z,21.00
2022-08-17T21:41:35.167Z,20.80
2022-08-17T21:46:46.758Z,20.60
2022-08-17T21:51:53.846Z,20.30
2022-08-17T21:56:57.371Z,20.00
2022-08-17T22:02:03.853Z,19.70
2022-08-17T22:07:10.021Z,19.40
2022-08-17T22:12:17.074Z,19.30
2022-08-17T22:17:25.082Z,19.30
2022-08-17T22:22:33.953Z,19.10
2022-08-17T22:27:49.869Z,19.00
2022-08-17T22:32:56.475Z,19.00
2022-08-17T22:38:28.035Z,18.90
2022-08-17T22:43:34.369Z,18.70
2022-08-17T22:48:49.215Z,18.50
2022-08-17T22:54:13.169Z,18.50
2022-08-17T22:59:40.168Z,18.30
2022-08-17T23:04:47.819Z,18.30
2022-08-17T23:09:55.240Z,18.20
2022-08-17T23:15:01.684Z,18.20
2022-08-17T23:20:09.263Z,18.10
2022-08-17T23:25:22.148Z,18.10
2022-08-17T23:30:28.677Z,18.00
2022-08-17T23:35:39.354Z,17.90
2022-08-17T23:40:43.994Z,17.90
2022-08-17T23:45:47.907Z,17.80
2022-08-17T23:50:54.705Z,17.80
2022-08-17T23:56:03.862Z,17.80
